Time;durP1;ratioP1;P1;durP2;ratioP2;P2;SDS_P1;SDS_P2;PMS_P1;PMS_P2;Temp;Humidity;BMP_temperature;BMP_pressure;BME280_temperature;BME280_humidity;BME280_pressure;Samples;Min_cycle;Max_cycle;Signal;HPM_P1;HPM_P2
2024/03/02 00:00:27;;;;;;;12.20;7.95;;;;;;;;;;4977337;28;20034;-50
2024/03/02 00:02:53;;;;;;;10.40;7.63;;;;;;;;;;4943459;28;20045;-51
2024/03/02 00:05:20;;;;;;;14.48;8.88;;;;;;;;;;4977211;28;20565;-49
2024/03/02 00:07:49;;;;;;;13.20;8.60;;;;;;;;;;4978516;28;20042;-50
2024/03/02 00:10:17;;;;;;;12.27;9.18;;;;;;;;;;4996531;28;20073;-52
2024/03/02 00:12:43;;;;;;;13.65;9.48;;;;;;;;;;4996424;28;20045;-49
2024/03/02 00:15:16;;;;;;;15.18;8.43;;;;;;;;;;4996278;28;20037;-49
2024/03/02 00:17:42;;;;;;;16.10;9.65;;;;;;;;;;4996153;28;20088;-51
2024/03/02 00:20:10;;;;;;;12.35;9.20;;;;;;;;;;4996190;28;20687;-51
2024/03/02 00:22:37;;;;;;;14.57;8.63;;;12.10;99.90;;;;;;4996524;28;20038;-50
2024/03/02 00:25:04;;;;;;;13.50;9.13;;;12.10;99.90;;;;;;4978215;28;20070;-52
2024/03/02 00:27:29;;;;;;;14.02;9.27;;;12.00;99.90;;;;;;4929898;28;20042;-50
2024/03/02 00:29:56;;;;;;;14.30;9.20;;;12.10;99.90;;;;;;4995934;28;20022;-52
2024/03/02 00:32:22;;;;;;;14.30;9.48;;;12.00;99.90;;;;;;4995929;28;20041;-52
2024/03/02 00:34:48;;;;;;;14.00;8.65;;;;;;;;;;4996022;28;20030;-51
2024/03/02 00:37:14;;;;;;;14.10;9.13;;;;;;;;;;4946208;28;20045;-49
2024/03/02 00:39:40;;;;;;;12.73;9.05;;;11.80;99.90;;;;;;4995822;28;20034;-50
2024/03/02 00:42:06;;;;;;;14.20;10.07;;;11.80;99.90;;;;;;4995790;28;20490;-48
2024/03/02 00:44:35;;;;;;;15.05;9.65;;;11.80;99.90;;;;;;4995877;28;20037;-49
2024/03/02 00:47:02;;;;;;;13.15;9.02;;;;;;;;;;4995678;28;20046;-50
2024/03/02 00:49:28;;;;;;;13.10;9.43;;;;;;;;;;4995659;28;20029;-51
2024/03/02 00:51:54;;;;;;;13.43;10.13;;;11.50;99.90;;;;;;4995634;28;20057;-49
2024/03/02 00:54:28;;;;;;;12.52;9.35;;;11.70;99.90;;;;;;4958140;28;20054;-48
2024/03/02 00:56:55;;;;;;;14.60;8.88;;;11.80;99.90;;;;;;4976224;28;20026;-49
2024/03/02 00:59:21;;;;;;;14.20;10.60;;;11.80;99.90;;;;;;4975976;28;20126;-51
2024/03/02 01:01:51;;;;;;;14.77;9.95;;;11.70;99.90;;;;;;4976236;28;20035;-49
2024/03/02 01:04:17;;;;;;;17.52;10.02;;;11.70;99.90;;;;;;4975918;28;20502;-50
2024/03/02 01:06:43;;;;;;;14.73;10.02;;;11.60;99.90;;;;;;4975806;28;20066;-49
2024/03/02 01:09:09;;;;;;;13.70;8.32;;;11.60;99.90;;;;;;4974934;28;20030;-51
2024/03/02 01:11:35;;;;;;;11.93;8.40;;;11.50;99.90;;;;;;4975942;28;20037;-51
2024/03/02 01:14:01;;;;;;;13.07;9.70;;;;;;;;;;4975803;28;20023;-50
2024/03/02 01:16:26;;;;;;;13.02;9.23;;;11.30;99.90;;;;;;4975921;28;20376;-51
2024/03/02 01:18:52;;;;;;;15.95;10.48;;;11.20;99.90;;;;;;4957827;28;20050;-51
2024/03/02 01:21:18;;;;;;;14.27;9.90;;;11.20;99.90;;;;;;4957653;28;20108;-50
2024/03/02 01:23:44;;;;;;;14.65;9.98;;;11.30;99.90;;;;;;4957712;28;20039;-52
2024/03/02 01:26:09;;;;;;;12.98;9.05;;;11.30;99.90;;;;;;4975533;28;20023;-49
2024/03/02 01:28:35;;;;;;;17.70;10.40;;;11.20;99.90;;;;;;4975682;28;20030;-52
2024/03/02 01:31:02;;;;;;;13.05;9.38;;;11.20;99.90;;;;;;4975496;28;20490;-49
2024/03/02 01:33:27;;;;;;;13.40;8.05;;;11.20;99.90;;;;;;4975602;28;20035;-50
2024/03/02 01:35:53;;;;;;;12.20;8.73;;;11.20;99.90;;;;;;4975331;28;20534;-49
2024/03/02 01:38:19;;;;;;;11.65;7.72;;;11.10;99.90;;;;;;4975166;28;20026;-49
2024/03/02 01:40:45;;;;;;;12.48;9.50;;;11.10;99.90;;;;;;4975232;28;20070;-49
2024/03/02 01:43:11;;;;;;;14.02;10.25;;;11.10;99.90;;;;;;4957474;28;20116;-48
2024/03/02 01:45:37;;;;;;;13.48;9.40;;;11.10;99.90;;;;;;4975450;28;20054;-52
2024/03/02 01:48:05;;;;;;;13.45;9.55;;;11.10;99.90;;;;;;4975240;28;20546;-50
2024/03/02 01:50:34;;;;;;;16.63;10.90;;;11.20;99.90;;;;;;4973494;28;20097;-52
2024/03/02 01:53:01;;;;;;;12.18;9.75;;;11.20;99.90;;;;;;4975072;28;20390;-51
2024/03/02 01:55:29;;;;;;;15.60;10.13;;;11.40;99.90;;;;;;4956968;28;20455;-51
2024/03/02 01:57:54;;;;;;;13.35;9.57;;;11.50;99.90;;;;;;4974966;28;20098;-52
2024/03/02 02:00:21;;;;;;;13.40;10.25;;;11.50;99.90;;;;;;4974892;28;20039;-49
2024/03/02 02:02:49;;;;;;;15.10;9.60;;;11.50;99.90;;;;;;4957040;28;20041;-50
2024/03/02 02:05:15;;;;;;;14.15;8.90;;;11.40;99.90;;;;;;4974743;28;20030;-49
2024/03/02 02:07:42;;;;;;;14.50;9.70;;;11.30;99.90;;;;;;4956809;28;20039;-50
2024/03/02 02:10:09;;;;;;;13.95;9.63;;;11.30;99.90;;;;;;4974813;28;20145;-50
2024/03/02 02:12:36;;;;;;;14.05;9.73;;;11.20;99.90;;;;;;4941359;28;20061;-53
2024/03/02 02:15:02;;;;;;;13.57;9.38;;;11.10;99.90;;;;;;4956291;28;20092;-51
2024/03/02 02:17:28;;;;;;;16.58;9.85;;;11.20;99.90;;;;;;4956864;28;20038;-51
2024/03/02 02:19:53;;;;;;;15.30;10.85;;;11.30;99.90;;;;;;4956430;28;20533;-52
2024/03/02 02:22:19;;;;;;;13.82;10.18;;;11.40;99.90;;;;;;4974611;28;20034;-52
2024/03/02 02:24:45;;;;;;;13.65;10.00;;;11.50;99.90;;;;;;4956692;28;20039;-53
2024/03/02 02:27:12;;;;;;;14.75;10.07;;;11.70;99.90;;;;;;4974808;28;20027;-49
2024/03/02 02:29:38;;;;;;;13.73;10.30;;;11.60;99.90;;;;;;4956621;28;20043;-51
2024/03/02 02:32:04;;;;;;;13.30;9.70;;;11.70;99.90;;;;;;4974534;28;20034;-50
2024/03/02 02:34:30;;;;;;;15.13;10.98;;;11.70;99.90;;;;;;4940876;28;20046;-50
2024/03/02 02:36:55;;;;;;;19.00;10.23;;;11.50;99.90;;;;;;4974530;28;20134;-52
2024/03/02 02:39:22;;;;;;;12.75;9.95;;;11.40;99.90;;;;;;4969808;28;20046;-53
2024/03/02 02:41:48;;;;;;;14.95;10.82;;;11.30;99.90;;;;;;4974596;28;20023;-49
2024/03/02 02:44:14;;;;;;;14.00;9.60;;;11.40;99.90;;;;;;4974409;28;20116;-49
2024/03/02 02:46:40;;;;;;;14.52;8.82;;;11.30;99.90;;;;;;4974256;28;20055;-52
2024/03/02 02:49:06;;;;;;;14.07;9.82;;;11.20;99.90;;;;;;4974292;28;20085;-49
2024/03/02 02:51:32;;;;;;;10.75;7.35;;;11.30;99.90;;;;;;4974283;28;20030;-49
2024/03/02 02:53:58;;;;;;;14.38;10.43;;;11.20;99.90;;;;;;4975919;28;20031;-52
2024/03/02 02:56:24;;;;;;;12.40;8.82;;;11.20;99.90;;;;;;5013263;28;20360;-52
2024/03/02 02:58:49;;;;;;;11.60;7.70;;;11.00;99.90;;;;;;5013311;28;20061;-52
2024/03/02 03:01:19;;;;;;;14.30;9.65;;;10.80;99.90;;;;;;5013267;28;20049;-50
2024/03/02 03:03:45;;;;;;;18.92;11.48;;;10.70;99.90;;;;;;5013289;28;20080;-51
2024/03/02 03:06:11;;;;;;;14.82;9.65;;;10.90;99.90;;;;;;5013292;28;20044;-51
2024/03/02 03:08:37;;;;;;;14.82;10.65;;;10.90;99.90;;;;;;5013257;28;20018;-52
2024/03/02 03:11:06;;;;;;;12.30;8.98;;;11.10;99.90;;;;;;5013366;28;20032;-50
2024/03/02 03:13:33;;;;;;;13.40;10.00;;;11.00;99.90;;;;;;5013000;28;20033;-49
2024/03/02 03:15:59;;;;;;;11.50;8.18;;;10.90;99.90;;;;;;5013126;28;20557;-50
2024/03/02 03:18:25;;;;;;;14.82;10.43;;;11.00;99.90;;;;;;5012966;28;20117;-51
2024/03/02 03:20:51;;;;;;;13.38;8.77;;;11.00;99.90;;;;;;5012976;28;20065;-49
2024/03/02 03:23:17;;;;;;;16.67;9.10;;;10.90;99.90;;;;;;5013139;28;20030;-50
2024/03/02 03:25:43;;;;;;;11.05;6.72;;;10.90;99.90;;;;;;4962676;28;20065;-50
2024/03/02 03:28:12;;;;;;;15.00;10.25;;;10.80;99.90;;;;;;5013155;28;20029;-50
2024/03/02 03:30:38;;;;;;;14.73;9.98;;;10.80;99.90;;;;;;5013352;28;20049;-51
2024/03/02 03:33:08;;;;;;;12.82;9.75;;;10.90;99.90;;;;;;5016537;28;20117;-52
2024/03/02 03:35:34;;;;;;;11.85;9.60;;;11.20;99.90;;;;;;5016786;28;20065;-51
2024/03/02 03:38:00;;;;;;;16.38;10.38;;;11.20;99.90;;;;;;5016789;28;20041;-51
2024/03/02 03:40:26;;;;;;;13.75;8.73;;;11.20;99.90;;;;;;4982494;28;20038;-52
2024/03/02 03:42:52;;;;;;;14.88;10.10;;;11.10;99.90;;;;;;4966409;28;20034;-50
2024/03/02 03:45:17;;;;;;;12.85;9.30;;;11.10;99.90;;;;;;4998730;28;20049;-49
2024/03/02 03:47:43;;;;;;;15.07;9.00;;;11.20;99.90;;;;;;4966425;28;20100;-49
2024/03/02 03:50:09;;;;;;;11.95;8.18;;;11.30;99.90;;;;;;5016611;28;20045;-48
2024/03/02 03:52:35;;;;;;;16.60;9.82;;;11.20;99.90;;;;;;4965891;28;20116;-49
2024/03/02 03:55:01;;;;;;;14.00;9.02;;;11.10;99.90;;;;;;5016575;28;20053;-52
2024/03/02 03:57:27;;;;;;;17.63;10.32;;;11.30;99.90;;;;;;5016555;28;20037;-52
2024/03/02 03:59:53;;;;;;;13.63;9.68;;;11.30;99.90;;;;;;5016327;28;20034;-52
2024/03/02 04:02:19;;;;;;;13.10;9.15;;;11.20;99.90;;;;;;5016661;28;20034;-50
2024/03/02 04:04:45;;;;;;;12.75;9.15;;;11.20;99.90;;;;;;5016282;28;20032;-52
2024/03/02 04:07:11;;;;;;;12.85;9.73;;;11.20;99.90;;;;;;5016413;28;20060;-52
2024/03/02 04:09:37;;;;;;;15.95;10.77;;;11.10;99.90;;;;;;5016216;28;20525;-53
2024/03/02 04:12:03;;;;;;;16.55;10.10;;;11.10;99.90;;;;;;5016226;28;20450;-49
2024/03/02 04:14:29;;;;;;;14.93;9.55;;;11.10;99.90;;;;;;4949813;28;20049;-51
2024/03/02 04:16:55;;;;;;;14.40;9.50;;;10.90;99.90;;;;;;5016075;28;20930;-49
2024/03/02 04:19:21;;;;;;;13.60;9.85;;;10.90;99.90;;;;;;5016114;28;20061;-49
2024/03/02 04:21:47;;;;;;;17.58;10.98;;;10.90;99.90;;;;;;5016060;28;20489;-51
2024/03/02 04:24:12;;;;;;;13.73;9.30;;;10.90;99.90;;;;;;5015963;28;20482;-50
2024/03/02 04:26:38;;;;;;;13.77;8.98;;;10.80;99.90;;;;;;4981426;28;20088;-50
2024/03/02 04:29:04;;;;;;;14.77;11.00;;;10.70;99.90;;;;;;5016095;28;20466;-50
2024/03/02 04:31:29;;;;;;;13.93;9.05;;;10.90;99.90;;;;;;5016006;28;20486;-52
2024/03/02 04:33:55;;;;;;;13.30;10.50;;;10.70;99.90;;;;;;5015672;28;20053;-53
2024/03/02 04:36:21;;;;;;;14.07;10.27;;;10.70;99.90;;;;;;5015715;28;20053;-50
2024/03/02 04:38:47;;;;;;;15.82;10.25;;;10.80;99.90;;;;;;5015613;28;20033;-48
2024/03/02 04:41:13;;;;;;;14.82;9.15;;;10.90;99.90;;;;;;5015329;28;20038;-49
2024/03/02 04:43:39;;;;;;;11.88;8.55;;;10.80;99.90;;;;;;5014428;28;20069;-50
2024/03/02 04:46:07;;;;;;;16.73;10.70;;;10.70;99.90;;;;;;5015486;28;20037;-49
2024/03/02 04:48:33;;;;;;;13.05;8.48;;;10.70;99.90;;;;;;5015583;28;20029;-50
2024/03/02 04:50:59;;;;;;;13.40;9.95;;;10.60;99.90;;;;;;5015349;28;20046;-49
2024/03/02 04:53:25;;;;;;;15.70;10.70;;;10.60;99.90;;;;;;5015429;28;20045;-50
2024/03/02 04:58:20;;;;;;;19.17;10.43;;;10.70;99.90;;;;;;5015484;28;20116;-52
2024/03/02 05:00:46;;;;;;;16.13;11.18;;;10.70;99.90;;;;;;5008922;28;20122;-52
2024/03/02 05:03:13;;;;;;;14.55;10.27;;;10.70;99.90;;;;;;4995654;28;20050;-49
2024/03/02 05:05:38;;;;;;;18.90;9.38;;;10.70;99.90;;;;;;4995685;28;20058;-49
2024/03/02 05:08:05;;;;;;;16.95;11.05;;;10.50;99.90;;;;;;4995517;28;20493;-49
2024/03/02 05:10:30;;;;;;;14.73;10.80;;;10.50;99.90;;;;;;4995350;28;20117;-53
2024/03/02 05:12:59;;;;;;;15.23;10.20;;;10.60;99.90;;;;;;4995540;28;20121;-52
2024/03/02 05:15:26;;;;;;;15.32;9.82;;;10.60;99.90;;;;;;4995605;28;20044;-51
2024/03/02 05:17:51;;;;;;;15.40;10.27;;;10.50;99.90;;;;;;4977154;28;20041;-49
2024/03/02 05:20:17;;;;;;;14.55;9.85;;;10.60;99.90;;;;;;4995408;28;20030;-49
2024/03/02 05:22:43;;;;;;;13.57;10.63;;;10.50;99.90;;;;;;4961285;28;20042;-50
2024/03/02 05:25:11;;;;;;;15.00;11.23;;;10.60;99.90;;;;;;4977319;28;20042;-51
2024/03/02 05:27:37;;;;;;;16.73;11.07;;;10.70;99.90;;;;;;4995159;28;20090;-51
2024/03/02 05:30:06;;;;;;;15.55;10.52;;;10.60;99.90;;;;;;4995144;28;20479;-51
2024/03/02 05:32:32;;;;;;;16.23;10.73;;;10.70;99.90;;;;;;4961650;28;20414;-52
2024/03/02 05:34:57;;;;;;;16.17;11.30;;;10.70;99.90;;;;;;4994981;28;20058;-49
2024/03/02 05:37:23;;;;;;;16.23;11.30;;;10.70;99.90;;;;;;4995046;28;20026;-53
2024/03/02 05:39:49;;;;;;;14.73;10.93;;;10.70;99.90;;;;;;4949140;28;20051;-52
2024/03/02 05:42:16;;;;;;;17.05;11.52;;;10.70;99.90;;;;;;4977853;28;20023;-50
2024/03/02 05:44:42;;;;;;;19.63;13.82;;;10.70;99.90;;;;;;4941928;28;20038;-49
2024/03/02 05:47:08;;;;;;;24.30;18.27;;;10.70;99.90;;;;;;4993389;28;20030;-52
2024/03/02 05:49:35;;;;;;;23.95;16.67;;;10.60;99.90;;;;;;4929334;28;20478;-51
2024/03/02 05:52:00;;;;;;;16.42;12.65;;;10.60;99.90;;;;;;4993685;28;20497;-51
2024/03/02 05:54:26;;;;;;;18.52;11.27;;;10.50;99.90;;;;;;4993817;28;20050;-50
2024/03/02 05:56:52;;;;;;;18.25;12.52;;;10.50;99.90;;;;;;4994114;28;20023;-52
2024/03/02 05:59:18;;;;;;;18.15;13.40;;;10.50;99.90;;;;;;4993022;28;20046;-50
2024/03/02 06:01:48;;;;;;;16.60;12.20;;;10.50;99.90;;;;;;4992239;28;20030;-52
2024/03/02 06:04:14;;;;;;;16.33;12.70;;;10.60;99.90;;;;;;4993632;28;20112;-50
2024/03/02 06:06:43;;;;;;;17.52;12.70;;;10.70;99.90;;;;;;4994057;28;20030;-52
2024/03/02 06:09:11;;;;;;;26.52;18.67;;;10.90;99.90;;;;;;4994015;28;20030;-50
2024/03/02 06:11:38;;;;;;;21.13;14.00;;;11.00;99.90;;;;;;4991198;28;20034;-49
2024/03/02 06:14:05;;;;;;;21.13;14.57;;;11.20;99.90;;;;;;4993183;28;20026;-49
2024/03/02 06:16:31;;;;;;;20.08;14.57;;;11.40;99.90;;;;;;4989202;28;20037;-52
2024/03/02 06:18:57;;;;;;;21.98;14.82;;;11.50;99.90;;;;;;5213944;23;20133;-52
2024/03/02 06:21:24;;;;;;;57.33;28.30;;;;;;;;;;4951714;28;20043;-50
2024/03/02 06:23:50;;;;;;;43.70;25.90;;;12.00;99.90;;;;;;4932477;28;20089;-50
2024/03/02 06:26:16;;;;;;;23.63;15.48;;;12.00;99.90;;;;;;4966066;28;20034;-50
2024/03/02 06:28:41;;;;;;;27.90;19.63;;;12.00;99.90;;;;;;4948352;28;20019;-52
2024/03/02 06:31:07;;;;;;;27.40;19.33;;;12.30;99.90;;;;;;4963112;28;20037;-49
2024/03/02 06:33:33;;;;;;;21.90;17.33;;;12.60;99.90;;;;;;4931025;28;20047;-51
2024/03/02 06:35:59;;;;;;;22.75;17.60;;;;;;;;;;4933920;28;20049;-54
2024/03/02 06:41:47;;;;;;;17.30;13.20;;;;;;;;;;4965322;28;20093;-57
2024/03/02 06:44:13;;;;;;;17.85;12.38;;;14.30;99.90;;;;;;4965069;28;20033;-57
2024/03/02 06:46:39;;;;;;;16.98;11.13;;;15.00;99.90;;;;;;4967103;28;20386;-54
2024/03/02 06:49:04;;;;;;;14.82;10.85;;;15.60;99.90;;;;;;4967784;28;20093;-57
2024/03/02 06:51:31;;;;;;;15.98;11.48;;;;;;;;;;4971096;28;20033;-57
2024/03/02 06:53:56;;;;;;;16.80;12.55;;;15.40;99.90;;;;;;4965146;28;20029;-55
2024/03/02 06:56:22;;;;;;;16.77;11.25;;;14.80;99.90;;;;;;4953209;28;20122;-56
2024/03/02 06:58:48;;;;;;;17.17;11.38;;;14.50;99.90;;;;;;4967739;28;20043;-55
2024/03/02 07:01:13;;;;;;;15.77;10.57;;;14.20;99.90;;;;;;4966788;28;20067;-54
2024/03/02 07:03:39;;;;;;;16.50;9.73;;;14.20;99.90;;;;;;4963803;28;20039;-53
2024/03/02 07:06:05;;;;;;;18.23;13.15;;;14.20;99.90;;;;;;4964872;28;20031;-54
2024/03/02 07:08:31;;;;;;;22.92;15.48;;;14.40;99.90;;;;;;4972121;28;20073;-54
2024/03/02 07:10:57;;;;;;;18.13;12.40;;;14.70;99.90;;;;;;4971801;28;20428;-52
2024/03/02 07:13:23;;;;;;;16.50;11.30;;;;;;;;;;4970509;28;21583;-53
2024/03/02 07:18:39;;;;;;;12.93;9.32;;;;;;;;;;4968883;28;20671;-54
2024/03/02 07:21:05;;;;;;;15.63;9.55;;;;;;;;;;4950126;28;20074;-52
2024/03/02 07:23:31;;;;;;;12.30;8.40;;;;;;;;;;4969804;28;20095;-55
2024/03/02 07:25:59;;;;;;;14.25;9.05;;;;;;;;;;4951579;28;20039;-52
2024/03/02 07:28:26;;;;;;;12.88;9.48;;;;;;;;;;4945633;28;20507;-52
2024/03/02 07:31:01;;;;;;;11.35;9.73;;;;;;;;;;4969806;28;20031;-52
2024/03/02 07:33:27;;;;;;;11.07;8.85;;;19.10;96.30;;;;;;4969660;28;20446;-54
2024/03/02 07:35:55;;;;;;;11.50;9.02;;;19.30;95.70;;;;;;4969400;28;20035;-53
2024/03/02 07:38:21;;;;;;;11.50;9.15;;;;;;;;;;4961505;28;20134;-51
2024/03/02 07:40:53;;;;;;;9.20;7.65;;;19.40;99.90;;;;;;4971452;28;20038;-53
2024/03/02 07:43:19;;;;;;;;;;;;;;;;;;4972192;28;20033;-53
2024/03/02 07:45:46;;;;;;;26.30;16.85;;;;;;;;;;4968329;28;19915;-53
2024/03/02 07:48:12;;;;;;;13.38;9.07;;;;;;;;;;4969167;28;20063;-54
2024/03/02 07:50:38;;;;;;;10.40;8.23;;;;;;;;;;4966757;28;20027;-53
2024/03/02 07:53:05;;;;;;;9.57;8.18;;;;;;;;;;4969491;28;20046;-51
2024/03/02 07:55:31;;;;;;;11.73;9.00;;;22.30;90.60;;;;;;4951189;28;20034;-52
2024/03/02 07:57:57;;;;;;;12.55;9.43;;;22.30;90.80;;;;;;4966810;28;20035;-53
2024/03/02 08:00:25;;;;;;;11.57;8.00;;;22.10;90.20;;;;;;4968241;28;20057;-51
2024/03/02 08:02:52;;;;;;;10.23;7.60;;;22.70;90.20;;;;;;4965104;28;20530;-55
2024/03/02 08:05:21;;;;;;;11.82;8.13;;;;;;;;;;4975962;28;20026;-55
2024/03/02 08:07:47;;;;;;;11.68;8.20;;;;;;;;;;4968947;28;20126;-52
2024/03/02 08:10:13;;;;;;;10.50;8.65;;;;;;;;;;4972166;28;20027;-54
2024/03/02 08:12:40;;;;;;;11.80;8.02;;;;;;;;;;4972559;28;20027;-53
2024/03/02 08:15:06;;;;;;;13.60;9.00;;;;;;;;;;4950894;28;20031;-53
2024/03/02 08:17:32;;;;;;;15.48;9.23;;;;;;;;;;4934297;28;20480;-54
2024/03/02 08:19:58;;;;;;;12.35;8.80;;;25.70;84.00;;;;;;4968679;28;20058;-52
2024/03/02 08:22:27;;;;;;;11.35;8.43;;;;;;;;;;4970448;28;20030;-53
2024/03/02 08:24:54;;;;;;;18.10;14.85;;;25.70;91.80;;;;;;4969930;28;20046;-52
2024/03/02 08:27:20;;;;;;;11.98;9.50;;;25.60;99.60;;;;;;4969813;28;20031;-53
2024/03/02 08:29:46;;;;;;;15.55;9.23;;;24.20;82.50;;;;;;4971823;28;20487;-52
2024/03/02 08:32:11;;;;;;;15.60;10.07;;;23.60;83.90;;;;;;4969126;28;20035;-55
2024/03/02 08:34:37;;;;;;;15.45;10.65;;;23.10;84.10;;;;;;4962988;28;20034;-55
2024/03/02 08:37:03;;;;;;;12.65;9.80;;;;;;;;;;4970157;28;20066;-55
2024/03/02 08:39:29;;;;;;;11.82;9.23;;;25.20;93.00;;;;;;4967909;28;20510;-55
2024/03/02 08:41:55;;;;;;;12.60;8.52;;;25.10;82.70;;;;;;4948526;28;20046;-55
2024/03/02 08:44:21;;;;;;;12.50;9.35;;;24.90;82.90;;;;;;4971795;28;20034;-52
2024/03/02 08:46:47;;;;;;;12.63;9.35;;;25.80;83.60;;;;;;4930064;28;20494;-57
2024/03/02 08:49:13;;;;;;;10.85;9.00;;;;;;;;;;4919440;28;20105;-54
2024/03/02 08:51:39;;;;;;;11.55;8.88;;;26.10;80.80;;;;;;4964892;28;20467;-56
2024/03/02 08:54:05;;;;;;;14.00;9.05;;;25.20;80.50;;;;;;4953021;28;20071;-53
2024/03/02 08:56:31;;;;;;;12.10;9.57;;;;;;;;;;4969234;28;20070;-55
2024/03/02 08:58:58;;;;;;;14.77;8.70;;;;;;;;;;4966176;28;20051;-55
2024/03/02 09:01:24;;;;;;;15.93;10.05;;;;;;;;;;4971299;28;20039;-55
2024/03/02 09:03:50;;;;;;;11.07;8.40;;;;;;;;;;4963886;28;20158;-53
2024/03/02 09:06:21;;;;;;;11.43;9.45;;;;;;;;;;4972473;28;20117;-54
2024/03/02 09:08:47;;;;;;;14.18;9.68;;;26.70;83.90;;;;;;4947652;29;20047;-53
2024/03/02 09:11:13;;;;;;;12.00;9.80;;;26.80;79.60;;;;;;4953577;28;20126;-53
2024/03/02 09:13:39;;;;;;;19.13;10.27;;;26.10;78.40;;;;;;4956111;28;20129;-55
2024/03/02 09:16:05;;;;;;;14.82;9.95;;;24.80;79.20;;;;;;4968377;28;20038;-53
2024/03/02 09:18:31;;;;;;;22.48;10.68;;;25.30;80.20;;;;;;4963623;28;20142;-50
2024/03/02 09:20:57;;;;;;;13.43;8.20;;;;;;;;;;4971159;28;20054;-53
2024/03/02 09:23:23;;;;;;;11.75;9.45;;;26.40;99.50;;;;;;4971569;28;20035;-53
2024/03/02 09:25:49;;;;;;;14.13;9.98;;;;;;;;;;4931724;28;20045;-56
2024/03/02 09:28:18;;;;;;;12.60;10.45;;;;;;;;;;4966318;28;20038;-57
2024/03/02 09:30:44;;;;;;;18.80;10.85;;;;;;;;;;4928682;28;20498;-56
2024/03/02 09:33:10;;;;;;;12.45;9.88;;;;;;;;;;4960839;28;20057;-55
2024/03/02 09:35:36;;;;;;;13.35;9.43;;;;;;;;;;4923681;28;20110;-52
2024/03/02 09:38:03;;;;;;;12.93;9.07;;;;;;;;;;4918799;28;20375;-54
2024/03/02 09:40:29;;;;;;;13.55;9.98;;;25.00;77.80;;;;;;4971933;28;20035;-55
2024/03/02 09:42:56;;;;;;;14.50;11.00;;;;;;;;;;4936854;28;20134;-54
2024/03/02 09:45:23;;;;;;;13.55;9.82;;;25.70;79.30;;;;;;4969290;28;20043;-54
2024/03/02 09:47:50;;;;;;;15.70;11.27;;;;;;;;;;4931327;28;20391;-54
2024/03/02 09:50:15;;;;;;;14.35;9.88;;;27.20;88.10;;;;;;4964970;28;20117;-54
2024/03/02 09:52:48;;;;;;;13.27;10.10;;;;;;;;;;4966868;28;20617;-53
2024/03/02 09:55:17;;;;;;;13.82;10.13;;;;;;;;;;4963318;28;20039;-55
2024/03/02 09:57:43;;;;;;;13.57;10.15;;;;;;;;;;4968024;28;20105;-55
2024/03/02 10:00:14;;;;;;;15.00;10.77;;;29.00;75.90;;;;;;4964485;28;20039;-57
2024/03/02 10:02:41;;;;;;;13.82;9.85;;;;;;;;;;4936346;28;20069;-55
2024/03/02 10:05:10;;;;;;;13.27;10.30;;;29.70;78.90;;;;;;4971891;28;20039;-53
2024/03/02 10:07:36;;;;;;;11.75;9.85;;;30.00;90.10;;;;;;4967005;28;20041;-56
2024/03/02 10:10:15;;;;;;;14.43;10.32;;;29.20;74.70;;;;;;4959425;28;20035;-59
2024/03/02 10:12:41;;;;;;;13.48;10.35;;;28.20;75.80;;;;;;4970535;28;20035;-56
2024/03/02 10:15:09;;;;;;;12.55;10.40;;;27.90;75.60;;;;;;4964951;28;20502;-56
2024/03/02 10:17:35;;;;;;;14.85;10.10;;;28.90;75.90;;;;;;4914249;28;20138;-54
2024/03/02 10:20:28;;;;;;;18.02;11.20;;;29.30;75.90;;;;;;4965174;28;20138;-53
2024/03/02 10:22:55;;;;;;;16.95;10.82;;;;;;;;;;4968406;28;20039;-56
2024/03/02 10:25:33;;;;;;;19.38;10.65;;;29.90;96.30;;;;;;4969703;28;20106;-53
2024/03/02 10:28:00;;;;;;;12.70;9.65;;;29.90;74.60;;;;;;4968603;28;20066;-56
2024/03/02 10:30:29;;;;;;;11.90;8.57;;;;;;;;;;4964458;28;20042;-56
2024/03/02 10:32:55;;;;;;;12.35;9.02;;;30.50;72.20;;;;;;4967313;28;20038;-57
2024/03/02 10:35:26;;;;;;;11.20;8.65;;;;;;;;;;4966438;28;20027;-56
2024/03/02 10:37:55;;;;;;;12.60;6.53;;;30.80;77.20;;;;;;4915212;28;20118;-54
2024/03/02 10:40:24;;;;;;;10.77;6.68;;;30.20;75.80;;;;;;4965485;28;20031;-58
2024/03/02 10:42:52;;;;;;;10.15;6.35;;;29.70;72.10;;;;;;4962850;28;20030;-53
2024/03/02 10:45:22;;;;;;;11.88;7.80;;;29.70;72.20;;;;;;4952051;29;20517;-53
2024/03/02 10:47:48;;;;;;;14.13;8.60;;;29.30;72.10;;;;;;4926729;29;20047;-56
2024/03/02 10:50:13;;;;;;;13.15;8.10;;;28.90;73.20;;;;;;4924748;29;20572;-56
2024/03/02 10:52:40;;;;;;;12.68;8.52;;;;;;;;;;4928081;29;20095;-55
2024/03/02 10:55:10;;;;;;;13.55;7.28;;;;;;;;;;4928740;29;20042;-53
2024/03/02 10:57:45;;;;;;;7.80;5.43;;;;;;;;;;4925023;29;20399;-55
2024/03/02 11:00:19;;;;;;;11.02;5.72;;;29.30;96.00;;;;;;4910161;29;20135;-56
2024/03/02 11:02:56;;;;;;;7.90;5.47;;;29.50;70.90;;;;;;4926020;29;20581;-53
2024/03/02 11:05:31;;;;;;;10.10;6.50;;;29.40;70.60;;;;;;4903365;29;20040;-56
2024/03/02 11:08:04;;;;;;;20.55;17.48;;;29.70;71.50;;;;;;4910658;29;20040;-57
2024/03/02 11:10:37;;;;;;;10.88;6.88;;;29.40;70.70;;;;;;4921482;29;20147;-54
2024/03/02 11:13:08;;;;;;;10.32;7.50;;;29.00;71.90;;;;;;4927601;29;20032;-55
2024/03/02 11:15:38;;;;;;;14.80;7.15;;;28.60;71.90;;;;;;4924337;29;20534;-55
2024/03/02 11:18:09;;;;;;;10.70;7.35;;;29.30;72.10;;;;;;4930049;28;20050;-58
2024/03/02 11:20:41;;;;;;;8.38;7.38;;;29.50;70.50;;;;;;4974624;28;20050;-53
2024/03/02 11:23:09;;;;;;;16.10;9.52;;;29.70;70.70;;;;;;4965595;28;20030;-57
2024/03/02 11:25:35;;;;;;;13.38;7.50;;;29.90;70.80;;;;;;4943342;28;20131;-56
2024/03/02 11:28:03;;;;;;;12.63;8.05;;;29.60;70.60;;;;;;4966092;28;20054;-53
2024/03/02 11:30:32;;;;;;;13.20;6.95;;;;;;;;;;4913159;28;20171;-58
2024/03/02 11:32:59;;;;;;;8.05;6.00;;;28.40;71.00;;;;;;4961171;28;20439;-55
2024/03/02 11:35:28;;;;;;;12.02;7.05;;;28.20;70.70;;;;;;4962016;28;20498;-59
2024/03/02 11:37:54;;;;;;;10.55;5.82;;;27.90;90.50;;;;;;4970158;28;20046;-59
2024/03/02 11:40:23;;;;;;;9.90;5.90;;;;;;;;;;4962859;28;20046;-53
2024/03/02 11:42:49;;;;;;;14.27;6.00;;;;;;;;;;4966246;28;20356;-52
2024/03/02 11:45:43;;;;;;;20.13;10.77;;;;;;;;;;4968777;28;20022;-58
2024/03/02 11:48:12;;;;;;;10.10;6.15;;;;;;;;;;4926501;29;20499;-61
2024/03/02 11:50:41;;;;;;;12.82;5.30;;;;;;;;;;4922372;29;20071;-55
2024/03/02 11:53:08;;;;;;;9.18;6.30;;;;;;;;;;4928339;29;20132;-60
2024/03/02 11:55:37;;;;;;;10.35;5.40;;;27.80;71.10;;;;;;4930853;29;20119;-60
2024/03/02 11:58:06;;;;;;;8.35;4.80;;;28.00;71.50;;;;;;4928990;29;20058;-57
2024/03/02 12:00:33;;;;;;;12.80;6.25;;;28.20;73.40;;;;;;4926965;29;20106;-59
2024/03/02 12:03:06;;;;;;;11.48;6.82;;;27.90;72.30;;;;;;4926035;29;20036;-56
2024/03/02 12:05:32;;;;;;;8.35;6.05;;;27.70;74.60;;;;;;4933279;29;20361;-56
2024/03/02 12:08:00;;;;;;;7.90;5.40;;;27.50;70.80;;;;;;4933264;29;20040;-56
2024/03/02 12:10:26;;;;;;;10.00;5.97;;;27.60;72.90;;;;;;4927074;29;20047;-59
2024/03/02 12:12:59;;;;;;;6.72;5.03;;;26.90;70.90;;;;;;4923424;29;20115;-55
2024/03/02 12:15:29;;;;;;;11.85;6.00;;;;;;;;;;4926299;29;20039;-55
2024/03/02 12:17:56;;;;;;;13.40;7.97;;;;;;;;;;4925883;28;20088;-56
2024/03/02 12:20:23;;;;;;;10.13;6.68;;;;;;;;;;4969692;28;20093;-53
2024/03/02 12:22:53;;;;;;;9.70;6.10;;;;;;;;;;4968877;28;20513;-52
2024/03/02 12:25:23;;;;;;;9.88;5.97;;;;;;;;;;4960319;28;20034;-53
2024/03/02 12:27:50;;;;;;;8.63;5.80;;;;;;;;;;4968553;28;20039;-58
2024/03/02 12:30:20;;;;;;;8.25;5.70;;;;;;;;;;4969330;28;20038;-59
2024/03/02 12:32:46;;;;;;;8.75;5.40;;;;;;;;;;4972303;28;20497;-57
2024/03/02 12:35:16;;;;;;;7.63;4.88;;;;;;;;;;4967919;28;20113;-55
2024/03/02 12:37:45;;;;;;;8.82;5.60;;;;;;;;;;4962842;28;20034;-56
2024/03/02 12:40:12;;;;;;;8.98;5.80;;;;;;;;;;4963794;28;20038;-52
2024/03/02 12:42:39;;;;;;;14.45;6.72;;;;;;;;;;4971050;28;20035;-56
2024/03/02 12:45:08;;;;;;;10.80;5.72;;;27.00;89.00;;;;;;4972795;28;20038;-57
2024/03/02 12:47:35;;;;;;;7.72;5.43;;;;;;;;;;4932133;28;20031;-57
2024/03/02 12:50:01;;;;;;;11.10;6.18;;;;;;;;;;4959287;28;20471;-55
2024/03/02 12:52:27;;;;;;;15.00;7.38;;;;;;;;;;4969296;28;20023;-52
2024/03/02 12:54:58;;;;;;;13.30;5.75;;;;;;;;;;4961572;28;20031;-55
2024/03/02 12:57:27;;;;;;;14.52;5.35;;;;;;;;;;4933524;28;20413;-56
2024/03/02 13:00:02;;;;;;;9.65;4.93;;;26.20;97.40;;;;;;4952006;28;20054;-58
2024/03/02 13:02:29;;;;;;;10.30;5.03;;;25.90;75.60;;;;;;4963199;28;20035;-56
2024/03/02 13:04:55;;;;;;;8.60;4.85;;;25.60;72.80;;;;;;4960389;28;20030;-54
2024/03/02 13:07:23;;;;;;;7.47;4.78;;;25.60;73.30;;;;;;4967972;28;20031;-52
2024/03/02 13:09:55;;;;;;;9.50;5.10;;;25.60;72.30;;;;;;4967220;28;20023;-52